Time;durP1;ratioP1;P1;durP2;ratioP2;P2;SDS_P1;SDS_P2;PMS_P1;PMS_P2;Temp;Humidity;BMP_temperature;BMP_pressure;BME280_temperature;BME280_humidity;BME280_pressure;Samples;Min_cycle;Max_cycle;Signal;HPM_P1;HPM_P2
2022/01/07 00:01:22;;;;;;;1.48;1.05;;;3.60;40.50;;;;;;5098983;28;20168;-47
2022/01/07 00:03:51;;;;;;;1.20;0.60;;;3.60;40.40;;;;;;5098689;28;20171;-48
2022/01/07 00:06:19;;;;;;;1.10;0.60;;;3.60;40.50;;;;;;5081434;28;20196;-48
2022/01/07 00:08:46;;;;;;;1.80;0.80;;;3.60;40.50;;;;;;5097934;28;20164;-48
2022/01/07 00:11:14;;;;;;;1.95;1.45;;;3.60;40.40;;;;;;5098474;28;20262;-48
2022/01/07 00:13:41;;;;;;;1.58;1.05;;;3.60;40.40;;;;;;5098418;28;20655;-49
2022/01/07 00:16:08;;;;;;;3.72;1.10;;;3.60;40.50;;;;;;5097727;28;20229;-48
2022/01/07 00:18:36;;;;;;;5.20;1.70;;;3.60;40.60;;;;;;5097702;28;20529;-49
2022/01/07 00:21:04;;;;;;;1.27;0.50;;;3.60;40.60;;;;;;5098597;28;20581;-49
2022/01/07 00:23:31;;;;;;;2.25;0.80;;;3.60;40.70;;;;;;5080665;28;20184;-48
2022/01/07 00:25:59;;;;;;;2.22;1.08;;;3.60;40.70;;;;;;5098257;28;20238;-47
2022/01/07 00:28:27;;;;;;;16.25;1.30;;;3.60;40.70;;;;;;5097712;28;20179;-48
2022/01/07 00:30:55;;;;;;;3.05;0.70;;;3.60;40.60;;;;;;5098320;28;20481;-48
2022/01/07 00:33:22;;;;;;;1.00;0.35;;;3.60;40.60;;;;;;5098254;28;20196;-47
2022/01/07 00:35:52;;;;;;;1.00;0.35;;;3.60;40.70;;;;;;5098067;28;20199;-49
2022/01/07 00:38:20;;;;;;;1.85;0.70;;;3.60;40.70;;;;;;5097096;28;20221;-48
2022/01/07 00:40:47;;;;;;;4.03;0.70;;;3.60;41.40;;;;;;5098314;28;20172;-49
2022/01/07 00:43:15;;;;;;;2.05;0.65;;;3.60;40.70;;;;;;5097092;28;20545;-49
2022/01/07 00:45:42;;;;;;;4.60;0.38;;;3.60;40.80;;;;;;5097881;28;20210;-47
2022/01/07 00:48:09;;;;;;;1.75;0.65;;;3.60;40.70;;;;;;5098373;28;20202;-49
2022/01/07 00:50:37;;;;;;;1.30;0.65;;;3.50;40.60;;;;;;5096887;28;20175;-48
2022/01/07 00:53:04;;;;;;;1.08;0.50;;;3.60;40.70;;;;;;5097923;28;20192;-48
2022/01/07 00:55:31;;;;;;;1.20;0.60;;;3.60;40.50;;;;;;5097825;28;20165;-48
2022/01/07 00:57:58;;;;;;;1.50;0.70;;;3.60;40.60;;;;;;5098400;28;20563;-48
2022/01/07 01:00:28;;;;;;;1.67;0.88;;;3.60;40.50;;;;;;5097639;28;20596;-49
2022/01/07 01:02:57;;;;;;;3.38;0.43;;;3.60;41.30;;;;;;5097592;28;20265;-50
2022/01/07 01:05:25;;;;;;;2.42;0.85;;;3.50;40.40;;;;;;5096682;28;20197;-49
2022/01/07 01:07:52;;;;;;;4.88;1.10;;;3.50;40.50;;;;;;5080095;28;20305;-49
2022/01/07 01:10:22;;;;;;;1.02;0.45;;;3.40;40.60;;;;;;5096184;28;20179;-49
2022/01/07 01:12:50;;;;;;;1.55;0.40;;;3.40;40.40;;;;;;5096624;28;20279;-48
2022/01/07 01:15:23;;;;;;;2.28;0.65;;;3.30;40.60;;;;;;5097550;28;20251;-49
2022/01/07 01:17:52;;;;;;;3.47;1.55;;;3.30;40.60;;;;;;5097557;28;20167;-49
2022/01/07 01:20:20;;;;;;;1.50;0.60;;;3.20;40.50;;;;;;5096724;28;20171;-49
2022/01/07 01:22:49;;;;;;;1.33;0.70;;;3.20;40.70;;;;;;5096307;28;20165;-48
2022/01/07 01:25:17;;;;;;;1.08;0.60;;;3.20;40.80;;;;;;5097113;28;20160;-48
2022/01/07 01:27:44;;;;;;;1.38;0.85;;;3.20;40.80;;;;;;5079550;28;20731;-49
2022/01/07 01:30:17;;;;;;;1.05;0.40;;;3.20;40.70;;;;;;5096410;28;20204;-48
2022/01/07 01:32:48;;;;;;;1.98;1.23;;;3.20;40.70;;;;;;5096042;28;20168;-49
2022/01/07 01:35:17;;;;;;;1.20;0.63;;;3.20;40.60;;;;;;5097102;28;20216;-49
2022/01/07 01:37:45;;;;;;;1.35;0.45;;;3.10;40.70;;;;;;5096082;28;20167;-49
2022/01/07 01:40:12;;;;;;;2.95;1.17;;;3.10;40.60;;;;;;5097304;28;20175;-49
2022/01/07 01:42:40;;;;;;;1.00;0.40;;;3.10;40.70;;;;;;5096819;28;20229;-49
2022/01/07 01:45:10;;;;;;;1.23;0.73;;;3.10;40.70;;;;;;5095840;28;20160;-49
2022/01/07 01:47:38;;;;;;;1.00;0.40;;;3.20;40.70;;;;;;5095590;28;20214;-49
2022/01/07 01:50:07;;;;;;;0.90;0.30;;;3.20;40.70;;;;;;5096122;28;20247;-48
2022/01/07 01:52:35;;;;;;;1.30;0.68;;;3.20;40.80;;;;;;5096698;28;20163;-48
2022/01/07 01:55:04;;;;;;;1.30;0.77;;;3.20;40.80;;;;;;5095692;28;20168;-47
2022/01/07 01:57:31;;;;;;;2.17;0.55;;;3.20;40.60;;;;;;5096611;28;20170;-48
2022/01/07 01:59:59;;;;;;;1.10;0.52;;;3.20;40.70;;;;;;5096710;28;20167;-48
2022/01/07 02:02:27;;;;;;;0.90;0.30;;;3.20;40.70;;;;;;5095659;28;20559;-47
2022/01/07 02:04:55;;;;;;;0.90;0.30;;;3.20;40.70;;;;;;5096078;28;20183;-49
2022/01/07 02:07:26;;;;;;;1.30;0.55;;;3.20;40.60;;;;;;5096273;28;20267;-48
2022/01/07 02:09:54;;;;;;;2.55;0.45;;;3.20;40.60;;;;;;5095415;28;20175;-47
2022/01/07 02:12:22;;;;;;;1.00;0.45;;;3.20;40.70;;;;;;5096233;28;20171;-48
2022/01/07 02:14:55;;;;;;;1.83;1.00;;;3.20;40.70;;;;;;5095286;28;20509;-49
2022/01/07 02:17:25;;;;;;;3.47;1.38;;;3.20;40.70;;;;;;5096191;28;20164;-47
2022/01/07 02:19:52;;;;;;;0.90;0.30;;;3.10;40.70;;;;;;5078407;28;20262;-48
2022/01/07 02:22:20;;;;;;;0.90;0.30;;;3.20;40.90;;;;;;5095264;28;20159;-48
2022/01/07 02:24:49;;;;;;;1.10;0.50;;;3.20;40.90;;;;;;5095937;28;20202;-48
2022/01/07 02:27:17;;;;;;;1.67;1.05;;;3.10;40.90;;;;;;5095113;28;20170;-48
2022/01/07 02:29:49;;;;;;;5.22;1.10;;;3.10;40.80;;;;;;5078570;28;20501;-48
2022/01/07 02:32:17;;;;;;;0.90;0.20;;;3.10;40.70;;;;;;5095126;28;20156;-48
2022/01/07 02:34:46;;;;;;;0.98;0.30;;;3.10;40.80;;;;;;5095650;28;20194;-48
2022/01/07 02:37:15;;;;;;;1.10;0.43;;;3.10;40.90;;;;;;5094753;28;20164;-47
2022/01/07 02:39:44;;;;;;;2.95;0.90;;;3.10;40.80;;;;;;5095751;28;20590;-48
2022/01/07 02:42:11;;;;;;;1.00;0.40;;;3.10;40.80;;;;;;5078436;28;20174;-47
2022/01/07 02:44:38;;;;;;;1.10;0.47;;;3.00;40.70;;;;;;5094753;28;20173;-48
2022/01/07 02:47:06;;;;;;;0.90;0.30;;;3.00;40.70;;;;;;5095290;28;20222;-47
2022/01/07 02:49:34;;;;;;;1.25;0.52;;;3.00;40.90;;;;;;5094924;28;20182;-47
2022/01/07 02:52:01;;;;;;;1.13;0.55;;;3.00;40.80;;;;;;5095474;28;20260;-47
2022/01/07 02:54:29;;;;;;;0.90;0.30;;;3.00;40.80;;;;;;5094734;28;20199;-47
2022/01/07 02:56:56;;;;;;;1.02;0.35;;;2.90;40.80;;;;;;5094742;28;20167;-48
2022/01/07 02:59:23;;;;;;;1.02;0.43;;;2.90;41.00;;;;;;5094974;28;20627;-47
2022/01/07 03:01:50;;;;;;;1.00;0.40;;;2.90;40.90;;;;;;5095453;28;20207;-48
2022/01/07 03:04:18;;;;;;;2.05;0.93;;;2.80;40.80;;;;;;5094385;28;20168;-47
2022/01/07 03:06:45;;;;;;;8.55;1.08;;;2.80;40.70;;;;;;5094467;28;20210;-47
2022/01/07 03:09:12;;;;;;;2.15;1.23;;;2.80;40.80;;;;;;5094746;28;20650;-47
2022/01/07 03:11:39;;;;;;;2.65;0.90;;;2.70;41.10;;;;;;5094620;28;20194;-47
2022/01/07 03:14:07;;;;;;;1.35;0.60;;;2.80;41.10;;;;;;5094342;28;20222;-49
2022/01/07 03:16:34;;;;;;;2.17;0.77;;;2.70;41.00;;;;;;5094151;28;20167;-47
2022/01/07 03:19:02;;;;;;;1.20;0.65;;;2.80;41.00;;;;;;5095060;28;20160;-48
2022/01/07 03:21:29;;;;;;;0.90;0.30;;;2.80;41.00;;;;;;5094277;28;20175;-48
2022/01/07 03:23:56;;;;;;;1.00;0.40;;;2.80;41.00;;;;;;5094356;28;20228;-49
2022/01/07 03:26:24;;;;;;;0.90;0.30;;;2.80;41.10;;;;;;5095009;28;20160;-48
2022/01/07 03:28:52;;;;;;;2.35;0.85;;;2.80;41.10;;;;;;5094288;28;20253;-48
2022/01/07 03:31:19;;;;;;;1.10;0.40;;;2.80;41.00;;;;;;5095041;28;20308;-49
2022/01/07 03:33:46;;;;;;;1.10;0.60;;;2.80;41.00;;;;;;5093921;28;20187;-48
2022/01/07 03:36:14;;;;;;;3.60;1.50;;;2.80;41.20;;;;;;5077851;28;20194;-47
2022/01/07 03:38:41;;;;;;;1.40;0.95;;;2.80;41.30;;;;;;5094015;28;20166;-49
2022/01/07 03:41:08;;;;;;;1.10;0.40;;;2.80;41.00;;;;;;5094968;28;20623;-47
2022/01/07 03:43:36;;;;;;;1.00;0.40;;;2.90;41.30;;;;;;5094833;28;20219;-49
2022/01/07 03:46:03;;;;;;;0.95;0.35;;;2.90;41.00;;;;;;5094605;28;20535;-47
2022/01/07 03:48:30;;;;;;;2.28;0.63;;;2.80;40.80;;;;;;5094850;28;20159;-48
2022/01/07 03:50:58;;;;;;;1.63;1.48;;;2.80;40.70;;;;;;5095128;28;20160;-48
2022/01/07 03:53:25;;;;;;;1.27;0.90;;;2.80;40.80;;;;;;5094842;28;20191;-49
2022/01/07 03:55:53;;;;;;;0.90;0.30;;;2.80;40.80;;;;;;5095020;28;20167;-47
2022/01/07 03:58:21;;;;;;;1.00;0.52;;;2.80;40.80;;;;;;5094692;28;20254;-47
2022/01/07 04:00:49;;;;;;;1.50;0.95;;;2.80;40.90;;;;;;5093995;28;20239;-48
2022/01/07 04:03:18;;;;;;;1.00;0.43;;;2.80;41.00;;;;;;5093807;28;20163;-47
2022/01/07 04:05:47;;;;;;;2.60;1.02;;;2.80;41.00;;;;;;5077329;28;20564;-49
2022/01/07 04:08:14;;;;;;;1.27;0.63;;;2.80;40.90;;;;;;5094871;28;20194;-47
2022/01/07 04:10:43;;;;;;;1.38;0.80;;;2.90;41.00;;;;;;5094638;28;20234;-48
2022/01/07 04:13:10;;;;;;;1.10;0.45;;;2.80;40.80;;;;;;5094731;28;20190;-48
2022/01/07 04:15:38;;;;;;;1.27;0.65;;;2.80;40.90;;;;;;5093863;28;20210;-48
2022/01/07 04:18:05;;;;;;;3.95;3.63;;;2.80;41.50;;;;;;5094764;28;20167;-49
2022/01/07 04:20:34;;;;;;;1.55;0.75;;;2.80;40.80;;;;;;5093611;28;20173;-48
2022/01/07 04:23:03;;;;;;;1.15;0.60;;;2.80;40.80;;;;;;5093751;28;20168;-47
2022/01/07 04:25:31;;;;;;;0.90;0.40;;;2.80;40.90;;;;;;5093797;28;20163;-49
2022/01/07 04:28:02;;;;;;;1.30;0.82;;;2.80;40.80;;;;;;5094647;28;20477;-48
2022/01/07 04:30:32;;;;;;;2.08;0.73;;;2.80;40.90;;;;;;5093449;28;20171;-49
2022/01/07 04:33:01;;;;;;;1.38;1.10;;;2.90;41.00;;;;;;5093381;28;20218;-49
2022/01/07 04:35:29;;;;;;;0.90;0.30;;;2.80;40.70;;;;;;5060405;28;20195;-48
2022/01/07 04:37:56;;;;;;;1.10;0.60;;;2.80;40.90;;;;;;5094424;28;20166;-47
2022/01/07 04:40:24;;;;;;;1.60;0.70;;;2.80;40.90;;;;;;5094350;28;20253;-48
2022/01/07 04:42:52;;;;;;;1.00;0.45;;;2.80;40.80;;;;;;5093442;28;20167;-49
2022/01/07 04:45:19;;;;;;;9.75;1.30;;;2.90;40.80;;;;;;5097683;28;20254;-47
2022/01/07 04:47:48;;;;;;;1.75;0.95;;;2.90;40.70;;;;;;5080074;28;20555;-48
2022/01/07 04:50:18;;;;;;;1.00;0.40;;;3.00;40.70;;;;;;5098316;28;20300;-47
2022/01/07 04:52:46;;;;;;;1.23;0.50;;;3.00;40.60;;;;;;5097965;28;20242;-49
2022/01/07 04:55:19;;;;;;;1.20;0.60;;;2.90;40.60;;;;;;5096846;28;20246;-47
2022/01/07 04:57:46;;;;;;;0.95;0.30;;;2.90;40.70;;;;;;5097739;28;20339;-48
2022/01/07 05:00:18;;;;;;;1.38;0.75;;;2.90;40.80;;;;;;5080178;28;20171;-49
2022/01/07 05:02:46;;;;;;;1.17;0.60;;;3.20;40.80;;;;;;5080379;28;20639;-49
2022/01/07 05:05:13;;;;;;;1.05;0.30;;;2.90;40.80;;;;;;5080276;28;20160;-48
2022/01/07 05:07:41;;;;;;;1.20;0.30;;;3.00;40.70;;;;;;5096714;28;20171;-47
2022/01/07 05:10:12;;;;;;;3.70;1.92;;;2.90;40.80;;;;;;5096823;28;20183;-47
2022/01/07 05:12:39;;;;;;;1.00;0.40;;;2.90;40.80;;;;;;5096781;28;20245;-47
2022/01/07 05:15:08;;;;;;;1.27;0.70;;;2.90;40.80;;;;;;5096564;28;20174;-47
2022/01/07 05:17:35;;;;;;;1.90;0.70;;;2.90;40.90;;;;;;5079993;28;20168;-48
2022/01/07 05:20:03;;;;;;;1.00;0.40;;;2.90;40.80;;;;;;5097226;28;20654;-48
2022/01/07 05:22:30;;;;;;;1.02;0.50;;;3.00;40.80;;;;;;5096261;28;20524;-48
2022/01/07 05:24:58;;;;;;;1.20;0.70;;;2.90;40.70;;;;;;5097192;28;20225;-48
2022/01/07 05:27:26;;;;;;;1.10;0.50;;;3.00;40.70;;;;;;5079491;28;20229;-48
2022/01/07 05:29:54;;;;;;;1.05;0.60;;;3.00;40.90;;;;;;5097198;28;20171;-47
2022/01/07 05:32:21;;;;;;;1.23;0.70;;;3.00;40.80;;;;;;5096350;28;20172;-48
2022/01/07 05:34:48;;;;;;;1.02;0.65;;;2.90;41.00;;;;;;5097097;28;20276;-48
2022/01/07 05:37:16;;;;;;;1.00;0.50;;;3.00;40.90;;;;;;5096340;28;20191;-48
2022/01/07 05:39:43;;;;;;;1.10;0.60;;;3.00;40.80;;;;;;5096823;28;20192;-48
2022/01/07 05:42:11;;;;;;;1.00;0.60;;;3.00;40.80;;;;;;5096826;28;20627;-47
2022/01/07 05:44:38;;;;;;;1.30;1.10;;;3.00;40.80;;;;;;5096887;28;20466;-47
2022/01/07 05:47:05;;;;;;;2.15;1.50;;;3.10;40.60;;;;;;5096411;28;20226;-47
2022/01/07 05:49:32;;;;;;;1.88;1.38;;;3.00;40.70;;;;;;5095588;28;20176;-49
2022/01/07 05:52:00;;;;;;;1.02;0.50;;;3.10;40.80;;;;;;5096315;28;20164;-49
2022/01/07 05:54:28;;;;;;;1.40;0.75;;;3.10;40.70;;;;;;5095509;28;20195;-49
2022/01/07 05:56:55;;;;;;;1.77;0.60;;;3.20;40.60;;;;;;5095976;28;20166;-47
2022/01/07 05:59:23;;;;;;;1.30;0.65;;;3.20;40.50;;;;;;5095728;28;20163;-48
2022/01/07 06:01:50;;;;;;;1.52;0.70;;;3.20;40.40;;;;;;5096618;28;20480;-48
2022/01/07 06:04:18;;;;;;;1.30;0.55;;;3.30;40.30;;;;;;5096517;28;20164;-47
2022/01/07 06:06:45;;;;;;;3.63;1.10;;;3.30;40.40;;;;;;5095598;28;20174;-48
2022/01/07 06:09:12;;;;;;;1.42;0.98;;;3.30;40.30;;;;;;5096233;28;20168;-48
2022/01/07 06:11:40;;;;;;;1.13;0.80;;;3.30;40.20;;;;;;5078866;28;20171;-49
2022/01/07 06:14:07;;;;;;;1.38;0.88;;;3.30;40.30;;;;;;5096267;28;20212;-47
2022/01/07 06:16:36;;;;;;;1.48;0.88;;;3.40;40.30;;;;;;5096520;28;20167;-48
2022/01/07 06:19:04;;;;;;;4.78;1.08;;;3.40;40.00;;;;;;5096080;28;20178;-47
2022/01/07 06:21:32;;;;;;;1.10;0.60;;;3.40;40.10;;;;;;5096084;28;20175;-47
2022/01/07 06:23:59;;;;;;;3.72;1.80;;;3.40;40.10;;;;;;5095959;28;20482;-49
2022/01/07 06:26:27;;;;;;;1.50;1.13;;;3.40;40.20;;;;;;5095938;28;20175;-48
2022/01/07 06:28:54;;;;;;;1.20;0.75;;;3.40;40.10;;;;;;5096044;28;20593;-48
2022/01/07 06:31:21;;;;;;;3.50;2.20;;;3.40;40.10;;;;;;5094715;28;20504;-48
2022/01/07 06:33:49;;;;;;;3.20;0.77;;;3.40;40.00;;;;;;5095733;28;20194;-49
2022/01/07 06:36:16;;;;;;;1.73;1.63;;;3.40;40.10;;;;;;5095815;28;20254;-48
2022/01/07 06:38:43;;;;;;;1.35;0.85;;;2.30;39.60;;;;;;5077947;28;20667;-49
2022/01/07 06:41:10;;;;;;;2.53;2.33;;;3.40;40.20;;;;;;5095825;28;20477;-49
2022/01/07 06:43:38;;;;;;;2.00;0.95;;;3.40;40.20;;;;;;5095733;28;20178;-49
2022/01/07 06:46:06;;;;;;;1.55;1.02;;;3.40;40.20;;;;;;5095280;28;20597;-48
2022/01/07 06:48:46;;;;;;;2.35;1.25;;;3.50;40.40;;;;;;5077789;28;20182;-47
2022/01/07 06:51:14;;;;;;;2.05;1.67;;;3.50;40.40;;;;;;5093861;28;20258;-49
2022/01/07 06:53:42;;;;;;;2.25;1.73;;;3.50;40.40;;;;;;5094571;28;20340;-49
2022/01/07 06:56:09;;;;;;;2.53;1.40;;;3.50;40.30;;;;;;5094739;28;20242;-48
2022/01/07 06:58:36;;;;;;;1.17;0.80;;;3.50;41.00;;;;;;5095281;28;20168;-48
2022/01/07 07:01:08;;;;;;;1.85;1.42;;;3.50;40.40;;;;;;5078050;28;20159;-49
2022/01/07 07:03:35;;;;;;;3.05;1.85;;;3.50;40.40;;;;;;5095348;28;20640;-49
2022/01/07 07:06:03;;;;;;;2.08;1.50;;;3.60;40.30;;;;;;5077375;28;20198;-47
2022/01/07 07:08:31;;;;;;;5.43;2.63;;;3.60;40.30;;;;;;5094479;28;20171;-48
2022/01/07 07:10:58;;;;;;;1.35;1.00;;;3.60;40.40;;;;;;5095419;28;20175;-47
2022/01/07 07:13:25;;;;;;;2.38;2.17;;;3.60;40.30;;;;;;5095266;28;20195;-48
2022/01/07 07:15:53;;;;;;;2.55;2.33;;;3.60;40.40;;;;;;5095331;28;20217;-49
2022/01/07 07:18:20;;;;;;;2.10;0.80;;;3.60;40.40;;;;;;5077423;28;20194;-47
2022/01/07 07:20:47;;;;;;;3.47;1.52;;;3.60;40.40;;;;;;5094282;28;20159;-47
2022/01/07 07:23:15;;;;;;;2.15;1.10;;;3.70;40.40;;;;;;5095477;28;20232;-48
2022/01/07 07:25:42;;;;;;;6.18;2.25;;;3.70;40.40;;;;;;5095120;28;20164;-48
2022/01/07 07:28:09;;;;;;;2.63;2.22;;;3.70;40.50;;;;;;5094347;28;20357;-48
2022/01/07 07:30:40;;;;;;;2.42;1.45;;;3.70;40.50;;;;;;5094189;28;20164;-48
2022/01/07 07:33:32;;;;;;;2.47;1.17;;;3.60;40.40;;;;;;5093818;28;20229;-48
2022/01/07 07:38:45;;;;;;;2.17;1.45;;;3.60;40.60;;;;;;5094904;28;20263;-49
2022/01/07 07:41:12;;;;;;;1.52;0.88;;;3.70;40.60;;;;;;5094800;28;20155;-48
2022/01/07 07:43:42;;;;;;;2.80;1.10;;;3.70;40.60;;;;;;5094913;28;20616;-48
2022/01/07 07:46:10;;;;;;;1.52;0.70;;;3.70;40.40;;;;;;5093558;28;20294;-48
2022/01/07 07:48:37;;;;;;;1.70;1.25;;;3.80;40.50;;;;;;5093851;28;20210;-49
2022/01/07 07:51:04;;;;;;;2.28;1.25;;;3.80;40.40;;;;;;5093969;28;20178;-49
2022/01/07 07:53:32;;;;;;;3.85;1.92;;;3.90;40.40;;;;;;5094669;28;20198;-49
2022/01/07 07:55:59;;;;;;;4.10;1.95;;;3.90;40.40;;;;;;5093794;28;20500;-48
2022/01/07 07:58:30;;;;;;;3.50;1.63;;;4.00;40.40;;;;;;5094826;28;20224;-49
2022/01/07 08:00:58;;;;;;;4.50;1.50;;;4.00;40.20;;;;;;5094923;28;20161;-48
2022/01/07 08:03:26;;;;;;;2.35;2.15;;;4.10;40.30;;;;;;5077085;28;20620;-49
2022/01/07 08:05:54;;;;;;;2.53;2.00;;;4.10;40.40;;;;;;5094610;28;20228;-47
2022/01/07 08:08:21;;;;;;;3.60;1.85;;;4.20;40.20;;;;;;5094586;28;20206;-48
2022/01/07 08:10:53;;;;;;;3.58;1.48;;;4.20;40.10;;;;;;5094558;28;20160;-48
2022/01/07 08:13:30;;;;;;;4.07;2.15;;;4.30;40.00;;;;;;5077375;28;20533;-47
2022/01/07 08:16:00;;;;;;;3.85;2.22;;;4.40;40.10;;;;;;5093711;28;20164;-49
2022/01/07 08:18:36;;;;;;;3.15;2.35;;;4.40;40.10;;;;;;5095088;28;20177;-48
2022/01/07 08:21:09;;;;;;;3.08;2.05;;;4.40;39.90;;;;;;5098332;28;20641;-49
2022/01/07 08:23:42;;;;;;;2.47;1.65;;;4.50;40.20;;;;;;5097897;28;20179;-48
2022/01/07 08:26:11;;;;;;;2.30;1.17;;;4.50;39.70;;;;;;5098380;28;20156;-49
2022/01/07 08:28:45;;;;;;;4.00;1.88;;;4.50;40.10;;;;;;5098187;28;20171;-47
2022/01/07 08:34:53;;;;;;;3.95;1.80;;;4.50;40.00;;;;;;5097192;28;20175;-48
2022/01/07 08:37:01;;;;;;;4.45;1.95;;;4.70;39.90;;;;;;5083550;28;20176;-49
2022/01/07 08:39:29;;;;;;;2.33;1.40;;;4.60;39.80;;;;;;5097547;28;20175;-49
2022/01/07 08:41:56;;;;;;;2.40;2.15;;;4.70;40.00;;;;;;5063806;28;20251;-48
2022/01/07 08:44:25;;;;;;;2.42;1.90;;;4.70;39.80;;;;;;5097966;28;20654;-47
2022/01/07 08:46:53;;;;;;;2.00;1.65;;;4.60;39.90;;;;;;5096709;28;20251;-49
2022/01/07 08:49:21;;;;;;;3.10;2.08;;;4.80;39.90;;;;;;5097778;28;20164;-48
2022/01/07 08:51:51;;;;;;;4.18;2.22;;;4.90;39.90;;;;;;5098084;28;20260;-47
2022/01/07 08:54:19;;;;;;;4.80;1.50;;;4.90;39.80;;;;;;5097855;28;20196;-49
2022/01/07 08:56:47;;;;;;;3.13;2.83;;;4.90;39.70;;;;;;5097811;28;20182;-49
2022/01/07 08:59:14;;;;;;;3.47;2.25;;;4.90;39.50;;;;;;5096862;28;20214;-48
2022/01/07 09:01:42;;;;;;;6.18;2.10;;;5.00;39.60;;;;;;5097594;28;20498;-49
2022/01/07 09:04:09;;;;;;;3.50;2.53;;;5.00;39.40;;;;;;5097704;28;20178;-48
2022/01/07 09:06:37;;;;;;;2.03;1.42;;;5.10;39.70;;;;;;5096670;28;20175;-48
2022/01/07 09:09:04;;;;;;;5.82;2.58;;;5.20;39.10;;;;;;5097708;28;20232;-48
2022/01/07 09:11:32;;;;;;;2.50;1.73;;;5.20;39.00;;;;;;5097891;28;20168;-49
2022/01/07 09:13:59;;;;;;;4.55;1.45;;;5.20;39.50;;;;;;5079659;28;20223;-49
2022/01/07 09:16:27;;;;;;;2.80;2.60;;;5.20;39.00;;;;;;5097526;28;20164;-50
2022/01/07 09:18:54;;;;;;;3.20;2.17;;;5.20;39.00;;;;;;5096876;28;20176;-47
2022/01/07 09:21:22;;;;;;;1.75;1.65;;;5.20;39.10;;;;;;5096635;28;20164;-49
2022/01/07 09:23:49;;;;;;;3.05;2.35;;;5.20;39.10;;;;;;5097313;28;20156;-48
2022/01/07 09:26:17;;;;;;;7.63;2.80;;;5.20;39.10;;;;;;5097086;28;20524;-47
2022/01/07 09:28:44;;;;;;;2.30;2.10;;;5.30;39.20;;;;;;5096221;28;20164;-47
2022/01/07 09:31:14;;;;;;;6.50;2.20;;;5.30;39.10;;;;;;5096978;28;20190;-47
2022/01/07 09:33:41;;;;;;;5.38;3.63;;;5.30;39.40;;;;;;5079455;28;20625;-47
2022/01/07 09:36:09;;;;;;;4.32;2.38;;;5.30;39.00;;;;;;5095907;28;20523;-48
2022/01/07 09:38:36;;;;;;;1.67;1.40;;;5.40;39.50;;;;;;5096862;28;20175;-50
2022/01/07 09:41:05;;;;;;;4.60;2.42;;;5.30;39.10;;;;;;5097036;28;20186;-48
2022/01/07 09:43:33;;;;;;;2.60;1.42;;;5.40;39.30;;;;;;5063075;28;20233;-49
2022/01/07 09:46:00;;;;;;;4.18;2.47;;;5.30;39.30;;;;;;5096435;28;21869;-48
2022/01/07 09:48:28;;;;;;;7.80;2.03;;;5.40;39.90;;;;;;5096643;28;20651;-49
2022/01/07 09:50:55;;;;;;;2.63;1.60;;;5.50;39.00;;;;;;5096779;28;20167;-49
2022/01/07 09:53:23;;;;;;;3.50;2.15;;;5.40;38.90;;;;;;5096675;28;20245;-48
2022/01/07 09:55:50;;;;;;;4.75;1.98;;;5.50;39.30;;;;;;5096660;28;20160;-49
2022/01/07 09:58:17;;;;;;;4.03;2.30;;;5.50;39.30;;;;;;5096678;28;20160;-48
2022/01/07 10:00:46;;;;;;;4.95;1.50;;;5.60;39.10;;;;;;5096411;28;20174;-47
2022/01/07 10:03:18;;;;;;;3.15;1.50;;;5.50;38.80;;;;;;5095623;28;20182;-49
2022/01/07 10:05:50;;;;;;;2.25;1.70;;;5.60;38.80;;;;;;5095783;28;20187;-47
2022/01/07 10:08:21;;;;;;;7.97;2.63;;;5.60;38.60;;;;;;5095476;28;20156;-49
2022/01/07 10:11:20;;;;;;;4.43;2.17;;;5.60;38.80;;;;;;5095432;28;20483;-49
2022/01/07 10:13:51;;;;;;;3.20;1.60;;;5.70;38.80;;;;;;5095094;28;20199;-49
2022/01/07 10:16:21;;;;;;;2.25;1.40;;;5.90;38.50;;;;;;5078495;28;20171;-49
2022/01/07 10:18:50;;;;;;;9.82;3.78;;;6.00;38.50;;;;;;5096146;28;20156;-48
2022/01/07 10:21:19;;;;;;;1.50;1.08;;;6.20;38.40;;;;;;5096073;28;20160;-48
2022/01/07 10:23:47;;;;;;;4.28;2.22;;;6.30;38.00;;;;;;5095130;28;20497;-49
2022/01/07 10:26:19;;;;;;;3.45;2.13;;;6.40;38.10;;;;;;5096585;28;20195;-48
2022/01/07 10:28:49;;;;;;;2.10;1.48;;;6.50;37.60;;;;;;5095459;28;20164;-48
2022/01/07 10:31:24;;;;;;;2.83;1.80;;;6.50;37.20;;;;;;5095001;28;20176;-49
2022/01/07 10:33:53;;;;;;;2.38;1.25;;;6.70;37.40;;;;;;5061638;28;20663;-49
2022/01/07 10:36:24;;;;;;;4.13;1.52;;;7.00;37.10;;;;;;5094882;28;20172;-49
2022/01/07 10:38:54;;;;;;;2.20;1.45;;;7.30;37.20;;;;;;5078239;28;20199;-49
2022/01/07 10:41:22;;;;;;;2.83;1.60;;;7.80;35.40;;;;;;5094159;28;20152;-49
2022/01/07 10:43:52;;;;;;;3.70;1.10;;;8.70;35.50;;;;;;5095748;28;20168;-48
2022/01/07 10:46:27;;;;;;;2.95;2.13;;;9.80;34.30;;;;;;5094590;28;20213;-49
2022/01/07 10:49:00;;;;;;;2.40;1.92;;;11.10;32.30;;;;;;5095543;28;20164;-49
2022/01/07 10:51:32;;;;;;;2.38;1.27;;;12.00;31.00;;;;;;5094784;28;20171;-49
2022/01/07 10:54:01;;;;;;;2.40;1.45;;;12.60;28.80;;;;;;5095557;28;20617;-49
2022/01/07 10:56:36;;;;;;;1.80;1.17;;;12.80;28.50;;;;;;5095532;28;20170;-49
2022/01/07 10:59:07;;;;;;;2.97;1.85;;;12.70;27.70;;;;;;5095838;28;20167;-50
2022/01/07 11:01:46;;;;;;;2.00;1.45;;;12.50;25.90;;;;;;5094572;28;20210;-49
2022/01/07 11:04:17;;;;;;;4.82;1.63;;;12.00;26.90;;;;;;5095375;28;20628;-49
2022/01/07 11:06:47;;;;;;;3.10;1.65;;;11.60;27.90;;;;;;5095436;28;20179;-49
2022/01/07 11:09:17;;;;;;;2.15;1.77;;;11.10;28.60;;;;;;5094302;28;20167;-50
2022/01/07 11:11:47;;;;;;;2.28;0.98;;;10.70;29.80;;;;;;5095321;28;20310;-48
2022/01/07 11:14:19;;;;;;;2.13;1.67;;;10.40;29.50;;;;;;5094109;28;20192;-49
2022/01/07 11:16:46;;;;;;;3.30;1.70;;;10.10;30.40;;;;;;5094665;28;20167;-50
2022/01/07 11:19:23;;;;;;;3.95;1.88;;;9.90;30.70;;;;;;5094150;28;20196;-50
2022/01/07 11:21:54;;;;;;;1.60;0.95;;;9.70;31.20;;;;;;5095292;28;20216;-49
2022/01/07 11:24:44;;;;;;;2.50;1.52;;;9.20;29.60;;;;;;5094106;28;20182;-48
2022/01/07 11:27:18;;;;;;;3.03;1.38;;;8.70;31.20;;;;;;5094933;28;20164;-48
2022/01/07 11:29:56;;;;;;;2.65;1.00;;;8.40;31.60;;;;;;5095364;28;20246;-50
2022/01/07 11:32:26;;;;;;;1.65;0.85;;;8.30;32.30;;;;;;5093923;28;20226;-49
2022/01/07 11:35:23;;;;;;;2.88;1.60;;;8.20;33.70;;;;;;5094786;28;20213;-49
2022/01/07 11:37:55;;;;;;;1.60;0.95;;;8.20;33.10;;;;;;5093714;28;20477;-49
2022/01/07 11:40:32;;;;;;;6.03;1.30;;;8.30;32.40;;;;;;5094139;28;20160;-50
2022/01/07 11:43:20;;;;;;;3.45;0.80;;;8.20;32.50;;;;;;5093735;28;20581;-48
2022/01/07 11:45:48;;;;;;;3.47;1.38;;;8.20;32.50;;;;;;5093565;28;20168;-48
2022/01/07 11:48:20;;;;;;;2.95;1.20;;;8.10;32.20;;;;;;5094318;28;20161;-49
2022/01/07 11:51:00;;;;;;;2.33;1.75;;;8.00;33.60;;;;;;5094665;28;20192;-49
2022/01/07 11:53:36;;;;;;;2.08;1.20;;;8.20;33.40;;;;;;5096266;28;20226;-49
2022/01/07 11:56:05;;;;;;;1.80;0.88;;;8.40;33.10;;;;;;5099161;28;20182;-49
2022/01/07 11:58:40;;;;;;;1.83;1.48;;;8.60;32.50;;;;;;5081288;28;20198;-50
2022/01/07 12:01:23;;;;;;;3.33;1.40;;;8.80;32.20;;;;;;5098920;28;20156;-49
2022/01/07 12:03:56;;;;;;;2.25;1.63;;;9.10;32.20;;;;;;5098617;28;20159;-48
2022/01/07 12:06:24;;;;;;;2.45;1.58;;;9.30;30.70;;;;;;5081594;28;20245;-49
2022/01/07 12:09:05;;;;;;;1.88;0.98;;;9.20;30.80;;;;;;5098917;28;20551;-49
2022/01/07 12:11:37;;;;;;;1.95;1.30;;;9.30;31.50;;;;;;5097553;28;20602;-50
2022/01/07 12:14:15;;;;;;;5.53;1.73;;;9.20;31.00;;;;;;5097444;28;20246;-49
2022/01/07 12:16:49;;;;;;;2.45;1.60;;;9.20;31.20;;;;;;5097664;28;20251;-50
2022/01/07 12:19:20;;;;;;;1.70;0.93;;;9.00;31.30;;;;;;5097984;28;20488;-50
2022/01/07 12:21:51;;;;;;;2.20;1.50;;;9.00;30.80;;;;;;5098471;28;20233;-50
2022/01/07 12:24:22;;;;;;;4.53;1.65;;;8.90;31.00;;;;;;5098555;28;20608;-49
2022/01/07 12:27:09;;;;;;;1.95;1.48;;;8.70;31.10;;;;;;5098549;28;20171;-49
2022/01/07 12:29:42;;;;;;;1.30;0.85;;;8.60;31.70;;;;;;5098641;28;20171;-49
2022/01/07 12:32:11;;;;;;;2.05;1.42;;;8.20;32.30;;;;;;5097496;28;20161;-49
2022/01/07 12:34:43;;;;;;;2.25;1.40;;;8.20;32.40;;;;;;5098265;28;20194;-49
2022/01/07 12:37:16;;;;;;;1.20;0.80;;;7.90;32.90;;;;;;5064560;28;20166;-49
2022/01/07 12:39:49;;;;;;;3.15;1.17;;;7.70;33.40;;;;;;5098291;28;20624;-49
2022/01/07 12:42:16;;;;;;;1.50;1.23;;;7.40;34.00;;;;;;5097215;28;20186;-49
2022/01/07 12:44:52;;;;;;;1.65;1.25;;;7.40;33.90;;;;;;5098057;28;20162;-49
2022/01/07 12:47:23;;;;;;;6.95;1.83;;;7.30;34.40;;;;;;5080912;28;20212;-48
2022/01/07 12:49:55;;;;;;;3.28;1.40;;;7.10;34.70;;;;;;5096840;28;20243;-48
2022/01/07 12:52:31;;;;;;;3.20;2.20;;;7.10;34.80;;;;;;5096943;28;20258;-48
2022/01/07 12:55:21;;;;;;;3.47;2.15;;;7.10;34.80;;;;;;5097694;28;20199;-49
2022/01/07 12:58:02;;;;;;;2.55;1.67;;;7.30;35.00;;;;;;5097307;28;20216;-49
2022/01/07 13:00:31;;;;;;;2.25;1.05;;;7.10;34.60;;;;;;5097203;28;20533;-50
2022/01/07 13:03:00;;;;;;;2.58;1.00;;;7.10;34.80;;;;;;5097620;28;20156;-49
2022/01/07 13:05:40;;;;;;;3.40;1.30;;;7.00;34.80;;;;;;5096065;28;20167;-49
2022/01/07 13:08:10;;;;;;;3.83;1.75;;;6.90;35.20;;;;;;5079854;28;20199;-49
2022/01/07 13:10:39;;;;;;;2.80;1.70;;;6.90;34.90;;;;;;5096712;28;20532;-50
2022/01/07 13:13:21;;;;;;;2.60;1.60;;;6.90;34.90;;;;;;5096624;28;20184;-49
2022/01/07 13:15:56;;;;;;;2.42;1.83;;;7.00;34.70;;;;;;5096458;28;20171;-49